createdAt,value
2022-09-23T00:00:59.075Z,58256.91
2022-09-23T00:03:25.712Z,58283.81
2022-09-23T00:06:04.365Z,58263.13
2022-09-23T00:08:31.470Z,58306.59
2022-09-23T00:11:09.219Z,58327.28
2022-09-23T00:13:36.487Z,58275.53
2022-09-23T00:16:08.733Z,58281.75
2022-09-23T00:18:35.127Z,58314.84
2022-09-23T00:21:06.365Z,58300.38
2022-09-23T00:23:33.275Z,58312.78
2022-09-23T00:26:02.338Z,58321.06
2022-09-23T00:28:29.676Z,58292.09
2022-09-23T00:30:56.371Z,58350.06
2022-09-23T00:33:22.992Z,58333.50
2022-09-23T00:35:49.896Z,58347.97
2022-09-23T00:38:17.099Z,58323.13
2022-09-23T00:40:45.925Z,58308.66
2022-09-23T00:43:14.729Z,58395.59
2022-09-23T00:45:44.564Z,58412.16
2022-09-23T00:48:15.514Z,58401.81
2022-09-23T00:50:44.625Z,58457.69
2022-09-23T00:53:12.721Z,58370.75
2022-09-23T00:55:52.643Z,58472.19
2022-09-23T00:58:23.647Z,58439.06
2022-09-23T01:00:50.151Z,58449.41
2022-09-23T01:03:16.565Z,58451.47
2022-09-23T01:05:43.008Z,58513.59
2022-09-23T01:08:10.487Z,58764.06
2022-09-23T01:11:21.737Z,58457.69
2022-09-23T01:14:03.362Z,58441.13
2022-09-23T01:16:54.412Z,58434.91
2022-09-23T01:19:36.179Z,58478.38
2022-09-23T01:22:23.916Z,58449.41
2022-09-23T01:25:05.542Z,58432.84
2022-09-23T01:28:01.324Z,58376.97
2022-09-23T01:30:40.337Z,58397.66
2022-09-23T01:33:11.292Z,58381.09
2022-09-23T01:36:03.108Z,58360.41
2022-09-23T01:38:44.757Z,58687.47
2022-09-23T01:41:32.819Z,58389.38
2022-09-23T01:44:08.409Z,58325.22
2022-09-23T01:46:37.763Z,58356.25
2022-09-23T01:49:20.615Z,58391.44
2022-09-23T01:51:51.272Z,58370.75
2022-09-23T01:54:26.540Z,58314.84
2022-09-23T01:57:03.066Z,58393.53
2022-09-23T01:59:37.743Z,58362.47
2022-09-23T02:02:15.339Z,58341.78
2022-09-23T02:04:47.176Z,58366.59
2022-09-23T02:08:03.128Z,58325.22
2022-09-23T02:10:49.661Z,58331.41
2022-09-23T02:13:29.936Z,58287.94
2022-09-23T02:16:01.087Z,58345.91
2022-09-23T02:18:32.113Z,58362.47
2022-09-23T02:21:05.250Z,58370.75
2022-09-23T02:24:00.427Z,58426.63
2022-09-23T02:26:29.836Z,58418.34
2022-09-23T02:29:26.792Z,58424.56
2022-09-23T02:32:09.371Z,58387.31
2022-09-23T02:34:45.838Z,58337.63
2022-09-23T02:37:21.249Z,58455.63
2022-09-23T02:40:11.748Z,58426.63
2022-09-23T02:42:59.339Z,58453.56
2022-09-23T02:45:25.772Z,58834.44
2022-09-23T02:47:57.060Z,58486.66
2022-09-23T02:50:24.211Z,58644.00
2022-09-23T02:52:50.737Z,58412.16
2022-09-23T02:55:18.025Z,58488.75
2022-09-23T02:57:45.036Z,58416.28
2022-09-23T03:00:12.396Z,58482.53
2022-09-23T03:02:58.963Z,58534.28
2022-09-23T03:05:30.077Z,58515.66
2022-09-23T03:07:59.405Z,58573.63
2022-09-23T03:10:31.996Z,58625.38
2022-09-23T03:13:29.399Z,58509.44
2022-09-23T03:16:24.027Z,58490.81
2022-09-23T03:19:12.288Z,58408.00
2022-09-23T03:21:47.041Z,58443.19
2022-09-23T03:24:14.399Z,58437.00
2022-09-23T03:26:44.381Z,58387.31
2022-09-23T03:29:11.693Z,58443.19
2022-09-23T03:31:40.061Z,58420.44
2022-09-23T03:34:21.283Z,58387.31
2022-09-23T03:36:53.609Z,58428.72
2022-09-23T03:40:19.308Z,58368.69
2022-09-23T03:42:48.853Z,58387.31
2022-09-23T03:45:18.402Z,58424.56
2022-09-23T03:47:45.380Z,58397.66
2022-09-23T03:50:17.301Z,58443.19
2022-09-23T03:52:44.075Z,58453.56
2022-09-23T03:55:11.071Z,58389.38
2022-09-23T03:57:38.086Z,58428.72
2022-09-23T04:00:07.318Z,58465.97
2022-09-23T04:02:34.151Z,58486.66
2022-09-23T04:05:01.081Z,58482.53
2022-09-23T04:07:27.626Z,58509.44
2022-09-23T04:09:54.303Z,58710.25
2022-09-23T04:12:20.726Z,58536.34
2022-09-23T04:14:47.136Z,58476.31
2022-09-23T04:17:13.914Z,58552.91
2022-09-23T04:19:40.655Z,58463.91
2022-09-23T04:22:08.747Z,58478.38
2022-09-23T04:24:35.342Z,58465.97
2022-09-23T04:27:01.866Z,58414.22
2022-09-23T04:29:28.352Z,58457.69
2022-09-23T04:31:54.925Z,58538.41
2022-09-23T04:34:21.531Z,58399.72
2022-09-23T04:36:49.564Z,58463.91
2022-09-23T04:39:16.673Z,58449.41
2022-09-23T04:41:43.953Z,58577.75
2022-09-23T04:44:12.130Z,58437.00
2022-09-23T04:46:39.146Z,58474.25
2022-09-23T04:49:06.601Z,58408.00
2022-09-23T04:51:33.446Z,58441.13
2022-09-23T04:53:59.851Z,58499.09
2022-09-23T04:56:28.360Z,58465.97
2022-09-23T04:58:58.159Z,58399.72
2022-09-23T05:01:29.433Z,58482.53
2022-09-23T05:03:58.153Z,58621.22
2022-09-23T05:06:25.268Z,58499.09
2022-09-23T05:08:53.909Z,58499.09
2022-09-23T05:11:21.090Z,58505.31
2022-09-23T05:13:53.755Z,58480.47
2022-09-23T05:16:22.941Z,58501.16
2022-09-23T05:18:50.466Z,58478.38
2022-09-23T05:21:18.918Z,58480.47
2022-09-23T05:23:55.026Z,58468.03
2022-09-23T05:26:23.152Z,58745.44
2022-09-23T05:28:49.529Z,58472.19
2022-09-23T05:31:21.034Z,58490.81
2022-09-23T05:33:54.060Z,58801.31
2022-09-23T05:36:24.059Z,58453.56
2022-09-23T05:38:51.126Z,58474.25
2022-09-23T05:41:19.117Z,58430.78
2022-09-23T05:43:45.936Z,58354.19
2022-09-23T05:46:27.927Z,58437.00
2022-09-23T05:49:02.082Z,58447.34
2022-09-23T05:51:31.188Z,58730.94
2022-09-23T05:53:58.597Z,58484.59
2022-09-23T05:56:26.690Z,58507.38
2022-09-23T05:58:54.664Z,58571.53
2022-09-23T06:01:26.503Z,58544.63
2022-09-23T06:03:55.160Z,58637.78
2022-09-23T06:06:27.709Z,58693.69
2022-09-23T06:08:54.142Z,58710.25
2022-09-23T06:11:21.802Z,58776.50
2022-09-23T06:13:49.227Z,58919.34
2022-09-23T06:16:16.483Z,59039.41
2022-09-23T06:18:44.590Z,59149.13
2022-09-23T06:21:15.808Z,59308.56
2022-09-23T06:23:43.009Z,59360.31
2022-09-23T06:26:11.491Z,59472.13
2022-09-23T06:28:39.186Z,59559.09
2022-09-23T06:31:13.375Z,59530.09
2022-09-23T06:33:40.478Z,59575.66
2022-09-23T06:36:07.719Z,59492.84
2022-09-23T06:38:34.416Z,59588.09
2022-09-23T06:41:01.921Z,59786.88
2022-09-23T06:43:28.309Z,60027.06
2022-09-23T06:45:56.140Z,60109.91
2022-09-23T06:48:24.030Z,60201.03
2022-09-23T06:50:51.585Z,60091.28
2022-09-23T06:53:18.014Z,59958.75
2022-09-23T06:55:44.440Z,60054.00
2022-09-23T06:58:10.927Z,59884.19
2022-09-23T07:00:37.536Z,60004.31
2022-09-23T07:03:08.233Z,60037.44
2022-09-23T07:05:35.327Z,59909.03
2022-09-23T07:08:01.948Z,59921.47
2022-09-23T07:10:29.065Z,59996.03
2022-09-23T07:12:55.666Z,59803.44
2022-09-23T07:15:22.157Z,59795.16
2022-09-23T07:17:49.518Z,59762.03
2022-09-23T07:20:17.877Z,59795.16
2022-09-23T07:22:49.488Z,59776.50
2022-09-23T07:25:15.990Z,59762.03
2022-09-23T07:27:42.375Z,59935.97
2022-09-23T07:30:17.343Z,59902.84
2022-09-23T07:32:49.423Z,59973.25
2022-09-23T07:35:16.769Z,60091.28
2022-09-23T07:37:43.434Z,60112.00
2022-09-23T07:40:09.917Z,60101.63
2022-09-23T07:42:36.375Z,60072.63
2022-09-23T07:45:02.750Z,60126.47
2022-09-23T07:47:29.760Z,60043.66
2022-09-23T07:49:56.126Z,60196.91
2022-09-23T07:52:22.864Z,60604.88
2022-09-23T07:54:49.257Z,60176.19
2022-09-23T07:57:16.035Z,60155.47
2022-09-23T07:59:43.058Z,60153.41
2022-09-23T08:02:11.326Z,60211.38
2022-09-23T08:04:38.370Z,60122.34
2022-09-23T08:07:05.455Z,60134.75
2022-09-23T08:09:35.008Z,60215.53
2022-09-23T08:12:01.725Z,60122.34
2022-09-23T08:14:28.154Z,60047.78
2022-09-23T08:16:54.551Z,60091.28
2022-09-23T08:19:21.058Z,59981.53
2022-09-23T08:21:47.516Z,60093.34
2022-09-23T08:24:16.811Z,60118.19
2022-09-23T08:26:44.630Z,60120.28
2022-09-23T08:29:16.723Z,60408.13
2022-09-23T08:31:43.483Z,60159.63
2022-09-23T08:34:10.524Z,60321.16
2022-09-23T08:36:37.079Z,60317.00
2022-09-23T08:39:04.186Z,60397.78
2022-09-23T08:41:57.564Z,60532.41
2022-09-23T08:44:50.716Z,60577.97
2022-09-23T08:47:23.092Z,60391.56
2022-09-23T08:50:04.080Z,60364.63
2022-09-23T08:52:50.026Z,60281.81
2022-09-23T08:55:17.466Z,60375.00
2022-09-23T08:58:02.339Z,60370.84
2022-09-23T09:00:40.814Z,60410.19
2022-09-23T09:03:21.356Z,60391.56
2022-09-23T09:05:54.164Z,60445.41
2022-09-23T09:08:29.638Z,60565.53
2022-09-23T09:10:58.110Z,60621.47
2022-09-23T09:13:33.259Z,60584.19
2022-09-23T09:16:09.710Z,60691.88
2022-09-23T09:18:40.687Z,60836.88
2022-09-23T09:21:16.101Z,60832.72
2022-09-23T09:24:15.104Z,60836.88
2022-09-23T09:26:41.823Z,61050.22
2022-09-23T09:32:27.367Z,61050.22
2022-09-23T09:34:58.018Z,61207.63
2022-09-23T09:37:31.618Z,61058.50
2022-09-23T09:39:58.287Z,60971.50
2022-09-23T09:42:28.299Z,60896.94
2022-09-23T09:45:01.179Z,61081.28
2022-09-23T09:47:49.418Z,61282.22
2022-09-23T09:50:22.104Z,61244.91
2022-09-23T09:52:48.857Z,61232.50
2022-09-23T09:55:27.002Z,61317.44
2022-09-23T09:58:03.968Z,61367.13
2022-09-23T10:00:30.292Z,61174.50
2022-09-23T10:03:23.061Z,61271.84
2022-09-23T10:05:52.154Z,61315.34
2022-09-23T10:08:18.469Z,61373.34
2022-09-23T10:11:15.133Z,61389.94
2022-09-23T10:13:42.684Z,61586.72
2022-09-23T10:16:09.385Z,61367.13
2022-09-23T10:18:47.960Z,61462.44
2022-09-23T10:21:16.501Z,61580.50
2022-09-23T10:23:55.031Z,61953.44
2022-09-23T10:26:33.360Z,61829.13
2022-09-23T10:29:24.748Z,61833.25
2022-09-23T10:32:26.058Z,61883.00
2022-09-23T10:34:56.987Z,61872.63
2022-09-23T10:37:29.358Z,61932.72
2022-09-23T10:40:14.457Z,62117.09
2022-09-23T10:43:16.729Z,62135.75
2022-09-23T10:46:07.373Z,62061.16
2022-09-23T10:48:48.103Z,62164.75
2022-09-23T10:51:26.163Z,62442.41
2022-09-23T10:54:22.272Z,62579.19
2022-09-23T10:56:53.831Z,62137.81
2022-09-23T10:59:43.592Z,62386.47
2022-09-23T11:02:31.181Z,62508.72
2022-09-23T11:05:28.364Z,62620.63
2022-09-23T11:08:19.672Z,62450.72
2022-09-23T11:11:00.576Z,62701.44
2022-09-23T11:13:27.026Z,62869.28
2022-09-23T11:16:13.634Z,63157.34
2022-09-23T11:19:08.292Z,62711.81
2022-09-23T11:22:04.429Z,63037.16
2022-09-23T11:24:50.054Z,63132.47
2022-09-23T11:27:26.911Z,63337.66
2022-09-23T11:30:07.168Z,63248.53
2022-09-23T11:33:14.128Z,63358.38
2022-09-23T11:35:50.441Z,63250.63
2022-09-23T11:38:24.887Z,62825.78
2022-09-23T11:40:55.755Z,63074.47
2022-09-23T11:43:29.097Z,62653.78
2022-09-23T11:46:04.398Z,62566.75
2022-09-23T11:48:37.018Z,62566.75
2022-09-23T11:51:07.620Z,62867.22
2022-09-23T11:53:44.664Z,62952.19
2022-09-23T11:56:34.829Z,62624.75
2022-09-23T11:59:36.441Z,62734.59
2022-09-23T12:02:35.898Z,62848.56
2022-09-23T12:05:09.557Z,62666.22
2022-09-23T12:08:11.151Z,62550.16
2022-09-23T12:10:42.582Z,62780.19
2022-09-23T12:13:44.428Z,62836.13
2022-09-23T12:16:21.598Z,63055.81
2022-09-23T12:18:55.334Z,63325.22
2022-09-23T12:21:49.774Z,62941.81
2022-09-23T12:24:38.908Z,62829.91
2022-09-23T12:27:10.880Z,62786.41
2022-09-23T12:29:39.826Z,62720.09
2022-09-23T12:32:09.809Z,62790.53
2022-09-23T12:34:48.043Z,62543.94
2022-09-23T12:37:23.527Z,62295.31
2022-09-23T12:39:50.085Z,62340.88
2022-09-23T12:42:18.674Z,62382.31
2022-09-23T12:44:47.403Z,62606.13
2022-09-23T12:47:25.833Z,62593.69
2022-09-23T12:49:56.444Z,62651.69
2022-09-23T12:52:31.404Z,62794.69
2022-09-23T12:55:10.034Z,62776.03
2022-09-23T12:57:37.181Z,62651.69
2022-09-23T13:00:13.355Z,62417.56
2022-09-23T13:03:11.452Z,62612.34
2022-09-23T13:06:17.290Z,62467.28
2022-09-23T13:08:45.316Z,62546.03
2022-09-23T13:11:22.877Z,62508.72
2022-09-23T13:13:50.064Z,62311.88
2022-09-23T13:16:25.115Z,62500.44
2022-09-23T13:19:27.028Z,62581.25
2022-09-23T13:21:53.313Z,62324.31
2022-09-23T13:24:22.620Z,62388.53
2022-09-23T13:26:51.597Z,62413.41
2022-09-23T13:29:40.426Z,62284.94
2022-09-23T13:32:11.882Z,62260.06
2022-09-23T13:34:39.823Z,62390.63
2022-09-23T13:37:26.534Z,62467.28
2022-09-23T13:39:52.942Z,62525.31
2022-09-23T13:42:27.136Z,62633.06
2022-09-23T13:44:57.462Z,62485.94
2022-09-23T13:47:29.129Z,62546.03
2022-09-23T13:49:55.853Z,62475.56
2022-09-23T13:52:30.003Z,62403.03
2022-09-23T13:54:57.047Z,62276.66
2022-09-23T13:57:27.653Z,62191.69
2022-09-23T13:59:54.097Z,62326.38
2022-09-23T14:02:20.637Z,62297.38
2022-09-23T14:04:47.123Z,62094.31
2022-09-23T14:07:15.425Z,62141.97
2022-09-23T14:09:44.193Z,62320.16
2022-09-23T14:12:10.925Z,62338.81
2022-09-23T14:14:39.525Z,62465.22
2022-09-23T14:17:07.708Z,63047.50
2022-09-23T14:19:36.006Z,62504.59
2022-09-23T14:22:03.022Z,62500.44
2022-09-23T14:24:29.368Z,62628.91
2022-09-23T14:26:57.700Z,62533.59
2022-09-23T14:29:30.866Z,62403.03
2022-09-23T14:32:00.559Z,62425.84
2022-09-23T14:34:40.428Z,62139.91
2022-09-23T14:37:37.394Z,62021.81
2022-09-23T14:40:08.683Z,62013.50
2022-09-23T14:42:41.018Z,61909.91
2022-09-23T14:45:14.157Z,61891.28
2022-09-23T14:47:44.353Z,61897.50
2022-09-23T14:50:38.445Z,61737.97
2022-09-23T14:53:33.577Z,61810.47
2022-09-23T14:56:05.687Z,61663.38
2022-09-23T14:58:42.519Z,61553.59
2022-09-23T15:01:31.067Z,61568.09
2022-09-23T15:03:58.626Z,61609.53
2022-09-23T15:06:25.430Z,61532.88
2022-09-23T15:08:52.764Z,61489.38
2022-09-23T15:11:19.517Z,61479.00
2022-09-23T15:13:51.347Z,61437.56
2022-09-23T15:16:31.287Z,61508.00
2022-09-23T15:18:59.941Z,61481.06
2022-09-23T15:21:34.449Z,61493.50
2022-09-23T15:24:01.002Z,61381.63
2022-09-23T15:26:48.961Z,61367.13
2022-09-23T15:29:15.950Z,61367.13
2022-09-23T15:31:42.629Z,61340.22
2022-09-23T15:34:10.511Z,61385.78
2022-09-23T15:36:38.437Z,61317.44
2022-09-23T15:39:12.675Z,61290.50
2022-09-23T15:41:39.352Z,61282.22
2022-09-23T15:44:13.530Z,61234.56
2022-09-23T15:46:45.687Z,61323.63
2022-09-23T15:49:47.044Z,61203.50
2022-09-23T15:52:16.246Z,61195.22
2022-09-23T15:54:43.711Z,61186.91
2022-09-23T15:57:11.238Z,61209.72
2022-09-23T15:59:38.183Z,61232.50
2022-09-23T16:02:18.092Z,61207.63
2022-09-23T16:04:47.171Z,61253.22
2022-09-23T16:07:16.916Z,61292.56
2022-09-23T16:09:43.286Z,61211.78
2022-09-23T16:12:11.831Z,61083.34
2022-09-23T16:14:38.234Z,61017.06
2022-09-23T16:17:05.004Z,60963.22
2022-09-23T16:19:34.304Z,60928.00
2022-09-23T16:22:01.048Z,60882.44
2022-09-23T16:24:28.419Z,60801.66
2022-09-23T16:26:59.727Z,60747.81
2022-09-23T16:29:27.440Z,60986.00
2022-09-23T16:31:54.002Z,60764.38
2022-09-23T16:34:20.584Z,60482.69
2022-09-23T16:36:47.060Z,60530.31
2022-09-23T16:39:13.896Z,60167.91
2022-09-23T16:41:42.916Z,60095.41
2022-09-23T16:44:12.208Z,60099.56
2022-09-23T16:46:40.260Z,60025.00
2022-09-23T16:49:06.847Z,60010.50
2022-09-23T16:51:38.001Z,59996.03
2022-09-23T16:54:10.537Z,59998.09
2022-09-23T16:56:38.985Z,59985.66
2022-09-23T16:59:05.847Z,60145.13
2022-09-23T17:01:51.058Z,59967.03
2022-09-23T17:04:19.275Z,60391.56
2022-09-23T17:06:50.399Z,59950.47
2022-09-23T17:09:18.826Z,59898.69
2022-09-23T17:11:47.709Z,59863.47
2022-09-23T17:14:15.312Z,59834.50
2022-09-23T17:16:42.132Z,59844.84
2022-09-23T17:19:10.215Z,59871.78
2022-09-23T17:21:36.796Z,59869.69
2022-09-23T17:24:03.733Z,59849.00
2022-09-23T17:26:30.317Z,59813.78
2022-09-23T17:28:58.631Z,59813.78
2022-09-23T17:31:25.214Z,59797.22
2022-09-23T17:33:52.584Z,59770.31
2022-09-23T17:36:19.898Z,59822.06
2022-09-23T17:38:48.180Z,59737.16
2022-09-23T17:41:15.717Z,59762.03
2022-09-23T17:43:46.583Z,59797.22
2022-09-23T17:46:18.280Z,59786.88
2022-09-23T17:48:45.259Z,59691.63
2022-09-23T17:51:14.419Z,59788.94
2022-09-23T17:53:45.663Z,59749.59
2022-09-23T17:56:19.911Z,59762.03
2022-09-23T17:58:47.681Z,59753.75
2022-09-23T18:01:17.467Z,59782.72
2022-09-23T18:03:44.083Z,59733.03
2022-09-23T18:06:21.463Z,59759.94
2022-09-23T18:08:49.403Z,59687.47
2022-09-23T18:11:27.399Z,59762.03
2022-09-23T18:13:55.853Z,59751.66
2022-09-23T18:16:24.913Z,59724.75
2022-09-23T18:18:56.822Z,59660.56
2022-09-23T18:21:25.411Z,59706.13
2022-09-23T18:23:51.864Z,59668.84
2022-09-23T18:26:20.074Z,59652.28
2022-09-23T18:28:47.826Z,59693.69
2022-09-23T18:31:15.074Z,59704.03
2022-09-23T18:33:41.890Z,59677.13
2022-09-23T18:36:08.815Z,59909.03
2022-09-23T18:38:35.430Z,59666.78
2022-09-23T18:41:01.937Z,59637.78
2022-09-23T18:43:38.988Z,59689.53
2022-09-23T18:46:11.533Z,59691.63
2022-09-23T18:48:56.486Z,59803.44
2022-09-23T18:51:28.684Z,59940.09
2022-09-23T18:54:00.022Z,59716.47
2022-09-23T18:56:29.605Z,60080.91
2022-09-23T18:58:56.328Z,60010.50
2022-09-23T19:01:23.730Z,59697.81
2022-09-23T19:04:01.862Z,59654.34
2022-09-23T19:06:28.988Z,59670.91
2022-09-23T19:08:55.859Z,59687.47
2022-09-23T19:11:22.831Z,59706.13
2022-09-23T19:13:57.570Z,59654.34
2022-09-23T19:16:24.915Z,59658.50
2022-09-23T19:18:56.704Z,59666.78
2022-09-23T19:21:24.082Z,59666.78
2022-09-23T19:23:53.050Z,59675.06
2022-09-23T19:26:26.343Z,59588.09
2022-09-23T19:29:06.832Z,59662.63
2022-09-23T19:31:35.623Z,59612.94
2022-09-23T19:34:06.238Z,59629.50
2022-09-23T19:36:34.572Z,59573.59
2022-09-23T19:39:03.509Z,59586.00
2022-09-23T19:41:41.005Z,59559.09
2022-09-23T19:44:07.838Z,59701.97
2022-09-23T19:46:49.665Z,59575.66
2022-09-23T19:49:18.757Z,59548.75
2022-09-23T19:51:46.845Z,59859.34
2022-09-23T19:54:20.856Z,59612.94
2022-09-23T19:56:50.838Z,59623.28
2022-09-23T19:59:19.703Z,59600.50
2022-09-23T20:01:47.887Z,59641.91
2022-09-23T20:04:15.767Z,59641.91
2022-09-23T20:06:42.728Z,59656.41
2022-09-23T20:09:09.274Z,59619.16
2022-09-23T20:11:35.837Z,59629.50
2022-09-23T20:14:03.858Z,59658.50
2022-09-23T20:16:33.142Z,59681.25
2022-09-23T20:19:00.768Z,59629.50
2022-09-23T20:21:28.426Z,59621.22
2022-09-23T20:23:55.368Z,59602.59
2022-09-23T20:26:46.668Z,59644.00
2022-09-23T20:29:13.187Z,59588.09
2022-09-23T20:31:41.413Z,59695.75
2022-09-23T20:34:08.364Z,59656.41
2022-09-23T20:36:36.214Z,59648.13
2022-09-23T20:39:07.682Z,59579.81
2022-09-23T20:41:39.387Z,59625.34
2022-09-23T20:44:09.368Z,59617.06
2022-09-23T20:46:36.009Z,59637.78
2022-09-23T20:49:03.735Z,59596.38
2022-09-23T20:51:33.022Z,59600.50
2022-09-23T20:53:59.863Z,59604.66
2022-09-23T20:56:27.586Z,59542.53
2022-09-23T20:58:54.969Z,59559.09
2022-09-23T21:01:22.201Z,59571.53
2022-09-23T21:03:50.356Z,59604.66
2022-09-23T21:06:19.061Z,59517.69
2022-09-23T21:08:46.312Z,59610.88
2022-09-23T21:11:15.017Z,59583.94
2022-09-23T21:13:49.244Z,59610.88
2022-09-23T21:16:17.344Z,59639.84
2022-09-23T21:18:44.993Z,59552.88
2022-09-23T21:21:14.310Z,59571.53
2022-09-23T21:23:42.654Z,59544.59
2022-09-23T21:26:14.777Z,59567.38
2022-09-23T21:28:43.733Z,59540.47
2022-09-23T21:31:22.564Z,59559.09
2022-09-23T21:33:59.478Z,59536.31
2022-09-23T21:36:28.171Z,59490.78
2022-09-23T21:38:58.892Z,59501.13
2022-09-23T21:41:25.820Z,59521.81
2022-09-23T21:43:52.656Z,59540.47
2022-09-23T21:46:22.925Z,59873.84
2022-09-23T21:48:54.041Z,59946.31
2022-09-23T21:51:26.039Z,59511.47
2022-09-23T21:53:57.494Z,59492.84
2022-09-23T21:56:26.451Z,59513.53
2022-09-23T21:58:54.314Z,59480.41
2022-09-23T22:01:30.702Z,59474.19
2022-09-23T22:03:59.628Z,59503.19
2022-09-23T22:06:27.854Z,59517.69
2022-09-23T22:08:59.867Z,59521.81
2022-09-23T22:11:51.595Z,59525.97
2022-09-23T22:14:19.665Z,59484.56
2022-09-23T22:16:47.550Z,59546.66
2022-09-23T22:19:15.500Z,59496.97
2022-09-23T22:21:45.588Z,59550.81
2022-09-23T22:24:12.897Z,59612.94
2022-09-23T22:26:44.059Z,59629.50
2022-09-23T22:29:31.107Z,59662.63
2022-09-23T22:32:16.701Z,59704.03
2022-09-23T22:34:51.572Z,59718.53
2022-09-23T22:37:30.254Z,59768.22
2022-09-23T22:39:56.743Z,60091.28
2022-09-23T22:42:23.156Z,59737.16
2022-09-23T22:44:50.333Z,59751.66
2022-09-23T22:47:20.181Z,60074.72
2022-09-23T22:49:46.983Z,59751.66
2022-09-23T22:52:15.799Z,59666.78
2022-09-23T22:54:42.201Z,59751.66
2022-09-23T22:57:09.238Z,59706.13
2022-09-23T22:59:37.395Z,59799.28
2022-09-23T23:02:05.332Z,59863.47
2022-09-23T23:04:31.931Z,59809.66
2022-09-23T23:07:03.171Z,59826.22
2022-09-23T23:09:29.616Z,59950.47
2022-09-23T23:11:55.983Z,60122.34
2022-09-23T23:14:22.347Z,59871.78
2022-09-23T23:16:49.517Z,59826.22
2022-09-23T23:19:17.257Z,59842.78
2022-09-23T23:21:45.065Z,59826.22
2022-09-23T23:24:16.942Z,59851.06
2022-09-23T23:26:43.862Z,59869.69
2022-09-23T23:29:12.709Z,59857.28
2022-09-23T23:31:39.496Z,59877.97
2022-09-23T23:34:08.240Z,59840.72
2022-09-23T23:36:34.739Z,60027.06
2022-09-23T23:39:01.266Z,59826.22
2022-09-23T23:41:28.271Z,59863.47
2022-09-23T23:43:56.848Z,59797.22
2022-09-23T23:46:25.341Z,59840.72
2022-09-23T23:48:52.431Z,59730.97
2022-09-23T23:51:19.349Z,59811.72
2022-09-23T23:53:45.871Z,59869.69
2022-09-23T23:56:18.961Z,59865.56
2022-09-23T23:58:46.127Z,59826.22
